sensor_id;sensor_type;location;lat;lon;timestamp;pressure;altitude;pressure_sealevel;temperature;humidity
9281;BME280;4679;47.966;7.958;2023-05-22T05:19:43;96862.09;;;14.96;88.85
9281;BME280;4679;47.966;7.958;2023-05-22T05:21:45;96859.63;;;15.00;89.12
9281;BME280;4679;47.966;7.958;2023-05-22T05:23:48;96859.09;;;15.03;88.66
9281;BME280;4679;47.966;7.958;2023-05-22T05:25:51;96854.00;;;15.06;88.64
9281;BME280;4679;47.966;7.958;2023-05-22T05:27:52;96862.78;;;15.12;89.11
9281;BME280;4679;47.966;7.958;2023-05-22T05:29:55;96860.06;;;15.17;88.62
9281;BME280;4679;47.966;7.958;2023-05-22T05:31:57;96857.34;;;15.22;88.50
9281;BME280;4679;47.966;7.958;2023-05-22T05:33:58;96852.25;;;15.26;88.82
9281;BME280;4679;47.966;7.958;2023-05-22T05:36:01;96862.34;;;15.34;88.21
9281;BME280;4679;47.966;7.958;2023-05-22T05:38:03;96855.28;;;15.43;88.79
9281;BME280;4679;47.966;7.958;2023-05-22T05:40:06;96854.97;;;15.49;88.51
9281;BME280;4679;47.966;7.958;2023-05-22T05:42:09;96862.44;;;15.53;88.33
9281;BME280;4679;47.966;7.958;2023-05-22T05:44:10;96859.25;;;15.56;88.65
9281;BME280;4679;47.966;7.958;2023-05-22T05:46:12;96858.38;;;15.60;87.95
9281;BME280;4679;47.966;7.958;2023-05-22T05:48:14;96861.81;;;15.66;88.58
9281;BME280;4679;47.966;7.958;2023-05-22T05:50:15;96856.44;;;15.71;88.33
9281;BME280;4679;47.966;7.958;2023-05-22T05:52:18;96863.25;;;15.82;87.91
9281;BME280;4679;47.966;7.958;2023-05-22T05:54:20;96864.69;;;15.98;87.80
9281;BME280;4679;47.966;7.958;2023-05-22T05:56:22;96864.03;;;16.11;87.41
9281;BME280;4679;47.966;7.958;2023-05-22T05:58:23;96865.84;;;16.16;87.32
9281;BME280;4679;47.966;7.958;2023-05-22T06:00:25;96870.63;;;16.19;87.32
9281;BME280;4679;47.966;7.958;2023-05-22T06:02:27;96867.09;;;16.24;87.39
9281;BME280;4679;47.966;7.958;2023-05-22T06:04:28;96872.97;;;16.26;87.18
9281;BME280;4679;47.966;7.958;2023-05-22T06:06:31;96869.44;;;16.30;87.13
9281;BME280;4679;47.966;7.958;2023-05-22T06:08:36;96872.84;;;16.36;87.05
9281;BME280;4679;47.966;7.958;2023-05-22T06:10:38;96872.25;;;16.39;87.44
9281;BME280;4679;47.966;7.958;2023-05-22T06:12:40;96878.41;;;16.39;87.28
9281;BME280;4679;47.966;7.958;2023-05-22T06:14:42;96873.00;;;16.44;87.62
9281;BME280;4679;47.966;7.958;2023-05-22T06:16:43;96880.19;;;16.49;87.34
9281;BME280;4679;47.966;7.958;2023-05-22T06:18:46;96875.84;;;16.53;86.99
9281;BME280;4679;47.966;7.958;2023-05-22T06:20:48;96878.47;;;16.58;87.04
9281;BME280;4679;47.966;7.958;2023-05-22T06:22:50;96880.56;;;16.61;87.02
9281;BME280;4679;47.966;7.958;2023-05-22T06:24:54;96875.91;;;16.72;86.65
9281;BME280;4679;47.966;7.958;2023-05-22T06:26:56;96888.72;;;16.75;86.83
9281;BME280;4679;47.966;7.958;2023-05-22T06:28:57;96873.06;;;16.82;86.97
9281;BME280;4679;47.966;7.958;2023-05-22T06:30:59;96879.97;;;16.88;86.59
9281;BME280;4679;47.966;7.958;2023-05-22T06:33:01;96881.56;;;16.89;86.20
9281;BME280;4679;47.966;7.958;2023-05-22T06:35:04;96878.03;;;16.94;86.50
9281;BME280;4679;47.966;7.958;2023-05-22T06:37:05;96875.25;;;16.99;86.49
9281;BME280;4679;47.966;7.958;2023-05-22T06:39:07;96879.16;;;17.06;86.22
9281;BME280;4679;47.966;7.958;2023-05-22T06:41:10;96884.09;;;17.18;86.32
9281;BME280;4679;47.966;7.958;2023-05-22T06:43:12;96876.66;;;17.29;86.11
9281;BME280;4679;47.966;7.958;2023-05-22T06:45:14;96880.66;;;17.31;85.71
9281;BME280;4679;47.966;7.958;2023-05-22T06:47:17;96874.72;;;17.34;85.40
9281;BME280;4679;47.966;7.958;2023-05-22T06:49:18;96878.69;;;17.37;85.54
9281;BME280;4679;47.966;7.958;2023-05-22T06:51:20;96880.53;;;17.41;85.43
9281;BME280;4679;47.966;7.958;2023-05-22T06:53:23;96873.75;;;17.44;85.63
9281;BME280;4679;47.966;7.958;2023-05-22T06:55:25;96872.00;;;17.53;85.68
9281;BME280;4679;47.966;7.958;2023-05-22T06:57:28;96868.09;;;17.78;84.66
9281;BME280;4679;47.966;7.958;2023-05-22T06:59:29;96865.22;;;17.88;84.62
9281;BME280;4679;47.966;7.958;2023-05-22T07:01:31;96877.91;;;18.01;84.29
9281;BME280;4679;47.966;7.958;2023-05-22T07:03:33;96871.25;;;18.12;84.16
9281;BME280;4679;47.966;7.958;2023-05-22T07:05:35;96875.00;;;18.11;83.90
9281;BME280;4679;47.966;7.958;2023-05-22T07:07:36;96878.50;;;18.12;84.13
9281;BME280;4679;47.966;7.958;2023-05-22T07:09:38;96879.22;;;18.17;83.92
9281;BME280;4679;47.966;7.958;2023-05-22T07:11:40;96878.72;;;18.29;83.67
9281;BME280;4679;47.966;7.958;2023-05-22T07:13:44;96884.28;;;18.46;83.33
9281;BME280;4679;47.966;7.958;2023-05-22T07:15:46;96882.25;;;18.52;82.76
9281;BME280;4679;47.966;7.958;2023-05-22T07:17:47;96883.97;;;18.48;82.87
9281;BME280;4679;47.966;7.958;2023-05-22T07:19:49;96874.03;;;18.48;82.76
9281;BME280;4679;47.966;7.958;2023-05-22T07:21:51;96874.69;;;18.54;82.58
9281;BME280;4679;47.966;7.958;2023-05-22T07:23:52;96885.66;;;18.57;82.32
9281;BME280;4679;47.966;7.958;2023-05-22T07:25:54;96873.25;;;18.61;82.21
9281;BME280;4679;47.966;7.958;2023-05-22T07:27:56;96883.56;;;18.68;81.86
9281;BME280;4679;47.966;7.958;2023-05-22T07:29:59;96873.03;;;18.72;81.69
9281;BME280;4679;47.966;7.958;2023-05-22T07:32:01;96872.72;;;18.73;81.36
9281;BME280;4679;47.966;7.958;2023-05-22T07:34:02;96873.72;;;18.77;81.24
9281;BME280;4679;47.966;7.958;2023-05-22T07:36:05;96875.97;;;18.84;80.94
9281;BME280;4679;47.966;7.958;2023-05-22T07:38:06;96870.34;;;19.08;80.41
9281;BME280;4679;47.966;7.958;2023-05-22T07:40:09;96871.22;;;19.17;79.87
9281;BME280;4679;47.966;7.958;2023-05-22T07:42:11;96876.63;;;19.25;79.66
9281;BME280;4679;47.966;7.958;2023-05-22T07:44:14;96868.25;;;19.27;79.40
9281;BME280;4679;47.966;7.958;2023-05-22T07:46:17;96868.16;;;19.32;79.42
9281;BME280;4679;47.966;7.958;2023-05-22T07:48:19;96870.00;;;19.45;79.13
9281;BME280;4679;47.966;7.958;2023-05-22T07:50:21;96863.91;;;19.53;78.77
9281;BME280;4679;47.966;7.958;2023-05-22T07:52:26;96864.44;;;19.64;78.41
9281;BME280;4679;47.966;7.958;2023-05-22T07:54:28;96864.47;;;19.73;78.23
9281;BME280;4679;47.966;7.958;2023-05-22T07:56:30;96868.03;;;19.82;77.91
9281;BME280;4679;47.966;7.958;2023-05-22T07:58:31;96866.38;;;20.03;77.34
9281;BME280;4679;47.966;7.958;2023-05-22T08:00:33;96863.91;;;20.15;76.98
9281;BME280;4679;47.966;7.958;2023-05-22T08:02:37;96862.06;;;20.33;76.78
9281;BME280;4679;47.966;7.958;2023-05-22T08:04:39;96865.00;;;20.54;76.24
9281;BME280;4679;47.966;7.958;2023-05-22T08:06:41;96858.22;;;20.65;75.76
9281;BME280;4679;47.966;7.958;2023-05-22T08:08:43;96862.97;;;20.68;75.57
9281;BME280;4679;47.966;7.958;2023-05-22T08:10:45;96873.00;;;20.76;75.21
9281;BME280;4679;47.966;7.958;2023-05-22T08:12:48;96875.69;;;20.85;75.23
9281;BME280;4679;47.966;7.958;2023-05-22T08:14:49;96869.06;;;20.91;74.88
9281;BME280;4679;47.966;7.958;2023-05-22T08:16:51;96869.22;;;21.03;74.41
9281;BME280;4679;47.966;7.958;2023-05-22T08:18:54;96878.28;;;21.07;74.09
9281;BME280;4679;47.966;7.958;2023-05-22T08:20:56;96879.53;;;21.10;73.95
9281;BME280;4679;47.966;7.958;2023-05-22T08:22:59;96869.06;;;21.25;73.53
9281;BME280;4679;47.966;7.958;2023-05-22T08:25:01;96870.03;;;21.38;72.71
9281;BME280;4679;47.966;7.958;2023-05-22T08:27:03;96860.66;;;21.44;72.59
9281;BME280;4679;47.966;7.958;2023-05-22T08:29:04;96865.38;;;21.56;72.40
9281;BME280;4679;47.966;7.958;2023-05-22T08:31:06;96859.47;;;21.80;71.49
9281;BME280;4679;47.966;7.958;2023-05-22T08:33:08;96862.63;;;21.90;71.34
9281;BME280;4679;47.966;7.958;2023-05-22T08:35:12;96856.56;;;21.93;71.31
9281;BME280;4679;47.966;7.958;2023-05-22T08:37:14;96860.22;;;21.97;70.82
9281;BME280;4679;47.966;7.958;2023-05-22T08:39:16;96860.03;;;22.11;70.54
9281;BME280;4679;47.966;7.958;2023-05-22T08:41:18;96849.97;;;22.20;70.13
9281;BME280;4679;47.966;7.958;2023-05-22T08:43:21;96860.94;;;22.24;69.93
9281;BME280;4679;47.966;7.958;2023-05-22T08:45:22;96856.59;;;22.31;69.68
9281;BME280;4679;47.966;7.958;2023-05-22T08:47:25;96858.47;;;22.39;69.77
9281;BME280;4679;47.966;7.958;2023-05-22T08:49:27;96860.22;;;22.44;69.51
9281;BME280;4679;47.966;7.958;2023-05-22T08:51:32;96861.94;;;22.49;69.30
9281;BME280;4679;47.966;7.958;2023-05-22T08:53:37;96865.50;;;22.61;68.98
9281;BME280;4679;47.966;7.958;2023-05-22T08:55:41;96860.84;;;22.70;68.91
9281;BME280;4679;47.966;7.958;2023-05-22T08:57:43;96861.97;;;22.69;68.87
9281;BME280;4679;47.966;7.958;2023-05-22T08:59:45;96859.53;;;22.85;68.29
9281;BME280;4679;47.966;7.958;2023-05-22T09:01:48;96855.44;;;23.00;68.00
9281;BME280;4679;47.966;7.958;2023-05-22T09:03:51;96856.75;;;23.14;67.63
9281;BME280;4679;47.966;7.958;2023-05-22T09:05:53;96857.13;;;23.25;67.14
9281;BME280;4679;47.966;7.958;2023-05-22T09:07:56;96852.31;;;23.31;67.26
9281;BME280;4679;47.966;7.958;2023-05-22T09:09:58;96852.34;;;23.43;66.99
9281;BME280;4679;47.966;7.958;2023-05-22T09:12:00;96856.84;;;23.60;66.53
9281;BME280;4679;47.966;7.958;2023-05-22T09:14:08;96861.97;;;23.73;66.24
9281;BME280;4679;47.966;7.958;2023-05-22T09:16:10;96858.13;;;23.74;65.96
9281;BME280;4679;47.966;7.958;2023-05-22T09:18:12;96858.91;;;23.63;66.40
9281;BME280;4679;47.966;7.958;2023-05-22T09:20:14;96861.75;;;23.66;66.15
9281;BME280;4679;47.966;7.958;2023-05-22T09:22:16;96859.75;;;23.88;65.65
9281;BME280;4679;47.966;7.958;2023-05-22T09:24:19;96860.47;;;23.97;65.51
9281;BME280;4679;47.966;7.958;2023-05-22T09:26:21;96861.66;;;23.87;65.77
9281;BME280;4679;47.966;7.958;2023-05-22T09:28:31;96855.44;;;23.87;65.68
9281;BME280;4679;47.966;7.958;2023-05-22T09:30:34;96857.97;;;24.04;65.08
9281;BME280;4679;47.966;7.958;2023-05-22T09:32:37;96853.06;;;23.85;65.48
9281;BME280;4679;47.966;7.958;2023-05-22T09:34:38;96849.13;;;23.82;65.45
9281;BME280;4679;47.966;7.958;2023-05-22T09:36:40;96845.97;;;23.80;65.08
9281;BME280;4679;47.966;7.958;2023-05-22T09:38:42;96852.19;;;23.81;64.95
9281;BME280;4679;47.966;7.958;2023-05-22T09:40:45;96852.50;;;23.79;64.85
9281;BME280;4679;47.966;7.958;2023-05-22T09:42:47;96840.44;;;24.01;64.28
9281;BME280;4679;47.966;7.958;2023-05-22T09:44:50;96849.28;;;24.23;63.70
9281;BME280;4679;47.966;7.958;2023-05-22T09:46:53;96851.69;;;24.24;63.38
9281;BME280;4679;47.966;7.958;2023-05-22T09:48:55;96847.19;;;24.40;62.94
9281;BME280;4679;47.966;7.958;2023-05-22T09:50:58;96848.78;;;24.41;63.16
9281;BME280;4679;47.966;7.958;2023-05-22T09:53:02;96846.63;;;24.35;63.09
9281;BME280;4679;47.966;7.958;2023-05-22T09:55:06;96842.56;;;24.41;62.48
9281;BME280;4679;47.966;7.958;2023-05-22T09:57:12;96843.34;;;24.53;62.28
9281;BME280;4679;47.966;7.958;2023-05-22T09:59:19;96847.16;;;24.65;61.82
9281;BME280;4679;47.966;7.958;2023-05-22T10:01:23;96843.66;;;24.64;62.07
9281;BME280;4679;47.966;7.958;2023-05-22T10:03:26;96839.34;;;24.63;61.64
9281;BME280;4679;47.966;7.958;2023-05-22T10:05:29;96836.56;;;24.23;62.67
9281;BME280;4679;47.966;7.958;2023-05-22T10:07:34;96840.22;;;23.82;63.23
9281;BME280;4679;47.966;7.958;2023-05-22T10:09:37;96844.00;;;23.69;63.05
9281;BME280;4679;47.966;7.958;2023-05-22T10:11:40;96846.97;;;23.76;63.47
9281;BME280;4679;47.966;7.958;2023-05-22T10:13:43;96845.19;;;23.92;62.53
9281;BME280;4679;47.966;7.958;2023-05-22T10:15:47;96840.13;;;24.03;62.21
9281;BME280;4679;47.966;7.958;2023-05-22T10:17:49;96853.13;;;24.22;61.62
9281;BME280;4679;47.966;7.958;2023-05-22T10:19:52;96849.63;;;24.21;61.96
9281;BME280;4679;47.966;7.958;2023-05-22T10:21:55;96844.88;;;24.18;61.85
9281;BME280;4679;47.966;7.958;2023-05-22T10:23:58;96851.28;;;24.01;62.37
9281;BME280;4679;47.966;7.958;2023-05-22T10:26:00;96849.34;;;23.77;62.42
9281;BME280;4679;47.966;7.958;2023-05-22T10:28:02;96849.50;;;23.60;62.59
9281;BME280;4679;47.966;7.958;2023-05-22T10:30:15;96847.69;;;23.52;62.59
9281;BME280;4679;47.966;7.958;2023-05-22T10:32:23;96851.75;;;23.58;62.24
9281;BME280;4679;47.966;7.958;2023-05-22T10:34:31;96850.03;;;23.87;61.39
9281;BME280;4679;47.966;7.958;2023-05-22T10:36:49;96842.47;;;23.92;61.27
9281;BME280;4679;47.966;7.958;2023-05-22T10:39:02;96852.06;;;23.90;61.22
9281;BME280;4679;47.966;7.958;2023-05-22T10:41:07;96845.03;;;23.76;61.37
9281;BME280;4679;47.966;7.958;2023-05-22T10:43:10;96840.06;;;23.66;61.53
9281;BME280;4679;47.966;7.958;2023-05-22T10:45:13;96841.91;;;23.54;61.97
9281;BME280;4679;47.966;7.958;2023-05-22T10:47:15;96839.28;;;23.45;61.63
9281;BME280;4679;47.966;7.958;2023-05-22T10:49:20;96836.66;;;23.36;61.63
9281;BME280;4679;47.966;7.958;2023-05-22T10:51:23;96835.41;;;23.34;61.73
9281;BME280;4679;47.966;7.958;2023-05-22T10:53:28;96839.38;;;23.36;61.72
9281;BME280;4679;47.966;7.958;2023-05-22T10:55:31;96835.41;;;23.34;61.69
9281;BME280;4679;47.966;7.958;2023-05-22T10:57:33;96821.78;;;23.42;61.61
9281;BME280;4679;47.966;7.958;2023-05-22T10:59:37;96820.06;;;23.38;61.72
9281;BME280;4679;47.966;7.958;2023-05-22T11:01:40;96817.53;;;23.21;61.73
9281;BME280;4679;47.966;7.958;2023-05-22T11:03:53;96814.09;;;23.11;62.10
9281;BME280;4679;47.966;7.958;2023-05-22T11:05:54;96824.00;;;23.07;62.07
9281;BME280;4679;47.966;7.958;2023-05-22T11:08:11;96828.88;;;22.93;62.30
9281;BME280;4679;47.966;7.958;2023-05-22T11:10:13;96832.97;;;22.78;62.57
9281;BME280;4679;47.966;7.958;2023-05-22T11:12:18;96839.69;;;22.72;62.52
9281;BME280;4679;47.966;7.958;2023-05-22T11:14:20;96842.91;;;22.66;62.40
9281;BME280;4679;47.966;7.958;2023-05-22T11:16:22;96852.34;;;22.60;62.51
9281;BME280;4679;47.966;7.958;2023-05-22T11:20:36;96863.38;;;22.46;62.92
9281;BME280;4679;47.966;7.958;2023-05-22T11:22:40;96867.72;;;22.38;63.08
9281;BME280;4679;47.966;7.958;2023-05-22T11:24:42;96857.53;;;22.35;63.16
9281;BME280;4679;47.966;7.958;2023-05-22T11:26:59;96855.94;;;22.34;62.89
9281;BME280;4679;47.966;7.958;2023-05-22T11:29:05;96855.16;;;22.34;63.02
9281;BME280;4679;47.966;7.958;2023-05-22T11:31:07;96862.16;;;22.35;62.83
9281;BME280;4679;47.966;7.958;2023-05-22T11:33:10;96863.75;;;22.36;63.12
9281;BME280;4679;47.966;7.958;2023-05-22T11:35:15;96860.56;;;22.34;63.02
9281;BME280;4679;47.966;7.958;2023-05-22T11:37:18;96869.69;;;22.29;63.28
9281;BME280;4679;47.966;7.958;2023-05-22T11:39:21;96874.94;;;22.26;63.25
9281;BME280;4679;47.966;7.958;2023-05-22T11:41:23;96877.97;;;22.24;63.31
9281;BME280;4679;47.966;7.958;2023-05-22T11:43:28;96888.47;;;22.17;63.56
9281;BME280;4679;47.966;7.958;2023-05-22T11:45:35;96879.44;;;22.13;63.73
9281;BME280;4679;47.966;7.958;2023-05-22T11:47:37;96882.78;;;22.10;63.64
9281;BME280;4679;47.966;7.958;2023-05-22T11:49:40;96884.22;;;22.07;63.80
9281;BME280;4679;47.966;7.958;2023-05-22T11:51:43;96870.56;;;22.04;64.11
9281;BME280;4679;47.966;7.958;2023-05-22T11:53:45;96878.50;;;22.00;64.38
9281;BME280;4679;47.966;7.958;2023-05-22T11:55:47;96892.19;;;21.95;64.29
9281;BME280;4679;47.966;7.958;2023-05-22T11:57:49;96892.03;;;21.92;64.56
9281;BME280;4679;47.966;7.958;2023-05-22T11:59:51;96891.88;;;21.88;64.40
9281;BME280;4679;47.966;7.958;2023-05-22T12:01:53;96887.09;;;21.85;64.46
9281;BME280;4679;47.966;7.958;2023-05-22T12:03:55;96887.28;;;21.80;64.76
9281;BME280;4679;47.966;7.958;2023-05-22T12:05:57;96881.25;;;21.74;64.95
9281;BME280;4679;47.966;7.958;2023-05-22T12:08:01;96886.19;;;21.72;65.07
9281;BME280;4679;47.966;7.958;2023-05-22T12:10:03;96892.25;;;21.61;65.42
9281;BME280;4679;47.966;7.958;2023-05-22T12:12:08;96890.69;;;21.51;65.39
9281;BME280;4679;47.966;7.958;2023-05-22T12:14:11;96887.03;;;21.47;65.43
9281;BME280;4679;47.966;7.958;2023-05-22T12:16:19;96888.28;;;21.41;65.81
9281;BME280;4679;47.966;7.958;2023-05-22T12:18:22;96881.94;;;21.37;65.62
9281;BME280;4679;47.966;7.958;2023-05-22T12:20:28;96885.28;;;21.34;65.72
9281;BME280;4679;47.966;7.958;2023-05-22T12:22:30;96877.97;;;21.34;65.62
9281;BME280;4679;47.966;7.958;2023-05-22T12:24:38;96881.94;;;21.37;65.74
9281;BME280;4679;47.966;7.958;2023-05-22T12:26:40;96876.69;;;21.40;65.74
9281;BME280;4679;47.966;7.958;2023-05-22T12:28:51;96871.75;;;21.42;65.70
9281;BME280;4679;47.966;7.958;2023-05-22T12:30:54;96876.84;;;21.44;65.31
9281;BME280;4679;47.966;7.958;2023-05-22T12:32:57;96866.69;;;21.41;65.74
9281;BME280;4679;47.966;7.958;2023-05-22T12:34:59;96861.75;;;21.43;65.23
9281;BME280;4679;47.966;7.958;2023-05-22T12:37:02;96862.56;;;21.44;65.44
9281;BME280;4679;47.966;7.958;2023-05-22T12:39:06;96861.13;;;21.46;65.29
9281;BME280;4679;47.966;7.958;2023-05-22T12:41:10;96857.31;;;21.47;65.53
9281;BME280;4679;47.966;7.958;2023-05-22T12:43:11;96864.16;;;21.53;65.35
9281;BME280;4679;47.966;7.958;2023-05-22T12:45:13;96862.53;;;21.61;65.21
9281;BME280;4679;47.966;7.958;2023-05-22T12:47:17;96854.13;;;21.62;65.26
9281;BME280;4679;47.966;7.958;2023-05-22T12:49:18;96856.97;;;21.57;65.11
9281;BME280;4679;47.966;7.958;2023-05-22T12:51:20;96857.94;;;21.61;65.40
9281;BME280;4679;47.966;7.958;2023-05-22T12:53:23;96853.78;;;21.64;65.10
9281;BME280;4679;47.966;7.958;2023-05-22T12:55:25;96856.78;;;21.71;64.83
9281;BME280;4679;47.966;7.958;2023-05-22T12:57:28;96852.16;;;21.80;64.42
9281;BME280;4679;47.966;7.958;2023-05-22T12:59:30;96844.50;;;21.91;64.32
9281;BME280;4679;47.966;7.958;2023-05-22T13:01:33;96832.25;;;22.02;64.15
9281;BME280;4679;47.966;7.958;2023-05-22T13:03:35;96836.19;;;22.13;63.97
9281;BME280;4679;47.966;7.958;2023-05-22T13:05:36;96820.25;;;22.20;63.78
9281;BME280;4679;47.966;7.958;2023-05-22T13:07:38;96825.31;;;22.30;63.43
9281;BME280;4679;47.966;7.958;2023-05-22T13:09:40;96824.34;;;22.85;62.02
9281;BME280;4679;47.966;7.958;2023-05-22T13:11:42;96819.91;;;23.01;61.94
9281;BME280;4679;47.966;7.958;2023-05-22T13:13:45;96821.75;;;23.09;61.45
9281;BME280;4679;47.966;7.958;2023-05-22T13:15:46;96820.81;;;23.26;60.92
9281;BME280;4679;47.966;7.958;2023-05-22T13:17:48;96823.69;;;23.42;60.48
9281;BME280;4679;47.966;7.958;2023-05-22T13:19:50;96820.28;;;23.33;60.64
9281;BME280;4679;47.966;7.958;2023-05-22T13:21:51;96820.97;;;23.42;59.87
9281;BME280;4679;47.966;7.958;2023-05-22T13:23:54;96813.19;;;23.73;59.23
9281;BME280;4679;47.966;7.958;2023-05-22T13:25:55;96812.66;;;23.92;59.18
9281;BME280;4679;47.966;7.958;2023-05-22T13:27:58;96808.16;;;24.08;58.58
9281;BME280;4679;47.966;7.958;2023-05-22T13:30:01;96816.91;;;24.38;58.09
9281;BME280;4679;47.966;7.958;2023-05-22T13:32:04;96804.31;;;24.70;57.14
9281;BME280;4679;47.966;7.958;2023-05-22T13:34:06;96810.56;;;25.11;56.89
9281;BME280;4679;47.966;7.958;2023-05-22T13:36:08;96810.50;;;25.23;56.51
9281;BME280;4679;47.966;7.958;2023-05-22T13:38:10;96800.56;;;25.43;56.57
9281;BME280;4679;47.966;7.958;2023-05-22T13:40:14;96804.31;;;25.38;56.19
9281;BME280;4679;47.966;7.958;2023-05-22T13:42:16;96797.31;;;25.09;57.23
9281;BME280;4679;47.966;7.958;2023-05-22T13:44:18;96802.50;;;25.14;56.68
9281;BME280;4679;47.966;7.958;2023-05-22T13:46:21;96797.91;;;25.03;56.63
9281;BME280;4679;47.966;7.958;2023-05-22T13:48:23;96798.72;;;24.79;57.07
9281;BME280;4679;47.966;7.958;2023-05-22T13:50:25;96794.59;;;24.69;57.41
9281;BME280;4679;47.966;7.958;2023-05-22T13:52:27;96803.38;;;24.78;56.95
9281;BME280;4679;47.966;7.958;2023-05-22T13:54:29;96786.56;;;24.61;56.75
9281;BME280;4679;47.966;7.958;2023-05-22T13:56:31;96789.97;;;24.58;56.76
9281;BME280;4679;47.966;7.958;2023-05-22T13:58:33;96793.13;;;24.72;56.63
9281;BME280;4679;47.966;7.958;2023-05-22T14:00:35;96794.28;;;24.59;56.73
9281;BME280;4679;47.966;7.958;2023-05-22T14:02:39;96783.31;;;24.55;56.34
9281;BME280;4679;47.966;7.958;2023-05-22T14:04:40;96791.22;;;24.48;56.65
9281;BME280;4679;47.966;7.958;2023-05-22T14:06:42;96790.56;;;24.39;56.96
9281;BME280;4679;47.966;7.958;2023-05-22T14:08:44;96788.19;;;24.37;56.56
9281;BME280;4679;47.966;7.958;2023-05-22T14:10:46;96784.78;;;24.52;56.22
9281;BME280;4679;47.966;7.958;2023-05-22T14:12:47;96789.03;;;24.66;55.98
9281;BME280;4679;47.966;7.958;2023-05-22T14:14:49;96779.53;;;24.72;56.12
9281;BME280;4679;47.966;7.958;2023-05-22T14:16:52;96786.75;;;24.80;55.75
9281;BME280;4679;47.966;7.958;2023-05-22T14:18:55;96784.94;;;24.84;55.60
9281;BME280;4679;47.966;7.958;2023-05-22T14:20:56;96779.50;;;24.84;55.89
9281;BME280;4679;47.966;7.958;2023-05-22T14:22:58;96780.19;;;24.81;55.96
9281;BME280;4679;47.966;7.958;2023-05-22T14:25:00;96787.88;;;24.79;56.04
9281;BME280;4679;47.966;7.958;2023-05-22T14:27:02;96788.56;;;24.76;55.62
9281;BME280;4679;47.966;7.958;2023-05-22T14:29:04;96791.84;;;24.81;56.00
9281;BME280;4679;47.966;7.958;2023-05-22T14:31:05;96778.72;;;24.83;55.79
9281;BME280;4679;47.966;7.958;2023-05-22T14:33:07;96779.94;;;24.86;55.85
9281;BME280;4679;47.966;7.958;2023-05-22T14:35:10;96784.00;;;24.92;55.68
9281;BME280;4679;47.966;7.958;2023-05-22T14:37:12;96781.63;;;24.90;55.41
9281;BME280;4679;47.966;7.958;2023-05-22T14:39:13;96781.53;;;24.87;55.48
9281;BME280;4679;47.966;7.958;2023-05-22T14:41:15;96782.66;;;24.86;55.59
9281;BME280;4679;47.966;7.958;2023-05-22T14:43:17;96783.06;;;24.72;56.22
9281;BME280;4679;47.966;7.958;2023-05-22T14:45:20;96778.66;;;24.56;56.08
9281;BME280;4679;47.966;7.958;2023-05-22T14:47:23;96782.50;;;24.54;56.15
9281;BME280;4679;47.966;7.958;2023-05-22T14:49:24;96787.75;;;24.75;55.65
9281;BME280;4679;47.966;7.958;2023-05-22T14:51:28;96784.34;;;24.90;55.09
9281;BME280;4679;47.966;7.958;2023-05-22T14:53:32;96780.03;;;25.02;54.62
9281;BME280;4679;47.966;7.958;2023-05-22T14:55:34;96785.25;;;25.22;54.94
9281;BME280;4679;47.966;7.958;2023-05-22T14:57:36;96780.31;;;25.40;54.42
9281;BME280;4679;47.966;7.958;2023-05-22T14:59:37;96778.06;;;25.58;53.86
9281;BME280;4679;47.966;7.958;2023-05-22T15:01:39;96771.34;;;25.68;54.15
9281;BME280;4679;47.966;7.958;2023-05-22T15:03:41;96774.00;;;25.64;53.89
9281;BME280;4679;47.966;7.958;2023-05-22T15:05:43;96763.41;;;25.47;54.19
9281;BME280;4679;47.966;7.958;2023-05-22T15:07:46;96770.44;;;25.48;54.07
9281;BME280;4679;47.966;7.958;2023-05-22T15:09:47;96760.81;;;25.50;53.75
9281;BME280;4679;47.966;7.958;2023-05-22T15:11:49;96758.59;;;25.56;53.46
9281;BME280;4679;47.966;7.958;2023-05-22T15:13:51;96763.16;;;25.52;54.09
9281;BME280;4679;47.966;7.958;2023-05-22T15:15:53;96766.72;;;25.40;53.59
9281;BME280;4679;47.966;7.958;2023-05-22T15:17:55;96774.09;;;25.40;53.80
9281;BME280;4679;47.966;7.958;2023-05-22T15:19:59;96765.06;;;25.51;53.84
9281;BME280;4679;47.966;7.958;2023-05-22T15:22:01;96774.72;;;25.49;53.38
9281;BME280;4679;47.966;7.958;2023-05-22T15:24:04;96769.44;;;25.40;53.92
9281;BME280;4679;47.966;7.958;2023-05-22T15:26:06;96771.00;;;25.26;54.43
9281;BME280;4679;47.966;7.958;2023-05-22T15:28:08;96764.25;;;25.19;53.78
9281;BME280;4679;47.966;7.958;2023-05-22T15:30:09;96770.09;;;25.21;54.05
9281;BME280;4679;47.966;7.958;2023-05-22T15:32:11;96767.03;;;25.23;53.69
9281;BME280;4679;47.966;7.958;2023-05-22T15:34:13;96762.25;;;25.32;53.78
9281;BME280;4679;47.966;7.958;2023-05-22T15:36:15;96763.91;;;25.37;53.59
9281;BME280;4679;47.966;7.958;2023-05-22T15:38:17;96766.38;;;25.42;53.40
9281;BME280;4679;47.966;7.958;2023-05-22T15:40:20;96763.41;;;25.47;53.66
9281;BME280;4679;47.966;7.958;2023-05-22T15:42:23;96760.34;;;25.48;53.77
9281;BME280;4679;47.966;7.958;2023-05-22T15:44:25;96753.44;;;25.51;53.80
9281;BME280;4679;47.966;7.958;2023-05-22T15:46:26;96752.69;;;25.38;53.37
9281;BME280;4679;47.966;7.958;2023-05-22T15:48:28;96753.47;;;25.23;53.88
9281;BME280;4679;47.966;7.958;2023-05-22T15:50:31;96750.81;;;25.11;53.84
9281;BME280;4679;47.966;7.958;2023-05-22T15:52:33;96738.91;;;25.15;53.51
9281;BME280;4679;47.966;7.958;2023-05-22T15:54:35;96741.41;;;25.08;53.89
9281;BME280;4679;47.966;7.958;2023-05-22T15:56:38;96741.69;;;25.03;53.44
9281;BME280;4679;47.966;7.958;2023-05-22T15:58:39;96753.88;;;25.09;53.68
9281;BME280;4679;47.966;7.958;2023-05-22T16:00:41;96753.88;;;25.09;53.78
9281;BME280;4679;47.966;7.958;2023-05-22T16:02:43;96749.72;;;25.00;53.71
9281;BME280;4679;47.966;7.958;2023-05-22T16:04:44;96743.59;;;24.90;54.06
9281;BME280;4679;47.966;7.958;2023-05-22T16:06:46;96749.66;;;24.84;54.22
9281;BME280;4679;47.966;7.958;2023-05-22T16:08:48;96745.00;;;24.84;53.72
9281;BME280;4679;47.966;7.958;2023-05-22T16:10:49;96745.91;;;24.88;53.80
9281;BME280;4679;47.966;7.958;2023-05-22T16:12:52;96752.53;;;24.91;53.65
9281;BME280;4679;47.966;7.958;2023-05-22T16:14:54;96748.28;;;24.90;53.81
9281;BME280;4679;47.966;7.958;2023-05-22T16:16:55;96755.41;;;24.82;53.76
9281;BME280;4679;47.966;7.958;2023-05-22T16:18:57;96751.06;;;24.66;53.94
9281;BME280;4679;47.966;7.958;2023-05-22T16:20:59;96756.97;;;24.56;54.00
9281;BME280;4679;47.966;7.958;2023-05-22T16:23:00;96749.84;;;24.51;53.96
9281;BME280;4679;47.966;7.958;2023-05-22T16:25:02;96752.44;;;24.47;53.95
9281;BME280;4679;47.966;7.958;2023-05-22T16:27:04;96755.84;;;24.44;53.69
9281;BME280;4679;47.966;7.958;2023-05-22T16:29:08;96758.91;;;24.43;53.76